Time;durP1;ratioP1;P1;durP2;ratioP2;P2;SDS_P1;SDS_P2;PMS_P1;PMS_P2;Temp;Humidity;BMP_temperature;BMP_pressure;BME280_temperature;BME280_humidity;BME280_pressure;Samples;Min_cycle;Max_cycle;Signal;HPM_P1;HPM_P2
2022/04/07 00:01:04;;;;;;;17.70;9.13;;;;;;;12.39;51.05;93885.69;5067031;28;20656;-91
2022/04/07 00:03:31;;;;;;;18.57;7.90;;;;;;;12.31;50.69;93870.53;5073096;28;20194;-91
2022/04/07 00:05:58;;;;;;;15.47;8.77;;;;;;;12.12;50.97;93838.81;5072133;28;20656;-87
2022/04/07 00:08:25;;;;;;;17.57;8.67;;;;;;;12.34;51.59;93863.00;5068909;28;20656;-85
2022/04/07 00:10:53;;;;;;;16.83;8.20;;;;;;;12.33;51.25;93852.81;5068997;28;20221;-85
2022/04/07 00:13:20;;;;;;;21.40;9.40;;;;;;;12.31;51.74;93847.06;5068823;28;20201;-85
2022/04/07 00:15:48;;;;;;;14.83;8.73;;;;;;;12.30;52.34;93861.13;5068899;28;20185;-85
2022/04/07 00:18:15;;;;;;;21.43;9.47;;;;;;;11.91;52.24;93780.59;5068151;28;20684;-89
2022/04/07 00:20:43;;;;;;;23.90;8.67;;;;;;;12.18;52.58;93837.84;5066948;28;20202;-88
2022/04/07 00:23:10;;;;;;;18.10;8.83;;;;;;;11.76;52.86;93809.09;5071919;28;20203;-91
2022/04/07 00:25:37;;;;;;;15.37;8.60;;;;;;;12.08;52.80;93842.97;5077922;28;20292;-92
2022/04/07 00:28:05;;;;;;;15.50;7.97;;;;;;;11.96;52.58;93834.53;5080253;28;20205;-90
2022/04/07 00:30:32;;;;;;;14.70;7.20;;;;;;;11.72;52.83;93791.59;5083067;28;20280;-90
2022/04/07 00:33:00;;;;;;;13.40;7.03;;;;;;;11.93;53.15;93811.56;5093842;28;20194;-91
2022/04/07 00:35:31;;;;;;;11.40;6.37;;;;;;;11.81;53.27;93803.13;5082005;28;20577;-89
2022/04/07 00:37:58;;;;;;;14.00;6.80;;;;;;;11.96;52.98;93813.69;5070988;28;20811;-83
2022/04/07 00:40:25;;;;;;;10.97;6.67;;;;;;;11.94;52.84;93813.94;5068643;28;20197;-81
2022/04/07 00:42:53;;;;;;;10.90;6.60;;;;;;;11.95;53.02;93814.72;5067855;28;20697;-83
2022/04/07 00:45:21;;;;;;;13.90;6.83;;;;;;;12.00;53.35;93825.19;5068738;28;20672;-83
2022/04/07 00:47:50;;;;;;;15.20;6.63;;;;;;;12.01;53.60;93829.34;5069263;28;20204;-82
2022/04/07 00:50:20;;;;;;;13.73;6.87;;;;;;;12.04;53.87;93821.03;5066605;28;21136;-84
2022/04/07 00:52:52;;;;;;;16.53;7.33;;;;;;;12.00;54.13;93819.19;5067470;28;20201;-84
2022/04/07 00:55:20;;;;;;;9.37;6.50;;;;;;;11.83;54.14;93814.09;5067836;28;20684;-85
2022/04/07 00:57:47;;;;;;;15.03;8.20;;;;;;;11.90;53.90;93806.84;5068113;28;20225;-86
2022/04/07 01:00:15;;;;;;;17.03;7.40;;;;;;;11.89;54.19;93802.69;5068654;28;20217;-86
2022/04/07 01:02:42;;;;;;;11.33;6.90;;;;;;;11.74;54.30;93792.13;5067807;28;20189;-85
2022/04/07 01:05:10;;;;;;;11.43;6.63;;;;;;;11.69;54.81;93797.25;5069147;28;20684;-84
2022/04/07 01:07:39;;;;;;;15.87;6.73;;;;;;;11.52;54.78;93767.94;5068349;28;20213;-84
2022/04/07 01:10:08;;;;;;;12.40;6.60;;;;;;;11.76;55.44;93795.28;5068517;28;20711;-85
2022/04/07 01:12:35;;;;;;;13.53;6.17;;;;;;;11.70;55.26;93778.03;5068775;28;20205;-85
2022/04/07 01:15:05;;;;;;;18.77;7.27;;;;;;;11.72;55.21;93781.97;5068372;28;20608;-86
2022/04/07 01:17:34;;;;;;;14.77;7.93;;;;;;;11.71;55.84;93779.63;5069501;28;20201;-89
2022/04/07 01:20:01;;;;;;;17.70;8.27;;;;;;;11.70;56.21;93762.41;5069720;28;20721;-90
2022/04/07 01:22:35;;;;;;;19.00;8.60;;;;;;;11.55;57.11;93764.84;5070395;28;20240;-91
2022/04/07 01:25:21;;;;;;;17.13;8.17;;;;;;;11.60;57.31;93759.72;5068963;28;20201;-88
2022/04/07 01:27:49;;;;;;;13.20;7.03;;;;;;;11.55;56.98;93750.03;5068526;28;20194;-88
2022/04/07 01:30:16;;;;;;;11.50;7.13;;;;;;;11.52;57.53;93749.72;5068539;28;20209;-88
2022/04/07 01:33:13;;;;;;;12.43;5.97;;;;;;;11.40;57.16;93744.66;5069056;28;20198;-89
2022/04/07 01:35:40;;;;;;;10.47;6.13;;;;;;;11.37;56.74;93743.34;5067737;28;20312;-88
2022/04/07 01:38:07;;;;;;;13.63;7.93;;;;;;;11.29;58.84;93730.78;5069094;28;20197;-90
2022/04/07 01:40:36;;;;;;;16.77;8.03;;;;;;;11.15;59.42;93700.19;5067753;28;21622;-89
2022/04/07 01:43:22;;;;;;;14.57;7.80;;;;;;;11.28;59.10;93702.44;5068786;28;20254;-90
2022/04/07 01:45:49;;;;;;;18.17;8.13;;;;;;;11.23;59.87;93702.34;5068721;28;20587;-89
2022/04/07 01:48:17;;;;;;;19.77;8.20;;;;;;;11.23;59.60;93700.53;5067661;28;20694;-89
2022/04/07 01:50:45;;;;;;;14.07;7.60;;;;;;;11.28;59.88;93692.03;5067216;28;20206;-91
2022/04/07 01:53:14;;;;;;;12.63;7.80;;;;;;;11.11;59.69;93692.09;5069561;28;20208;-91
2022/04/07 01:55:44;;;;;;;18.67;8.27;;;;;;;11.17;60.37;93696.31;5068511;28;20209;-84
2022/04/07 01:58:12;;;;;;;16.37;8.07;;;;;;;11.19;60.01;93696.09;5067742;28;20208;-87
2022/04/07 02:00:41;;;;;;;17.10;8.00;;;;;;;10.97;60.28;93651.91;5068995;28;20209;-87
2022/04/07 02:03:09;;;;;;;14.67;7.63;;;;;;;11.04;60.75;93672.53;5067935;28;20233;-85
2022/04/07 02:06:10;;;;;;;18.50;8.37;;;;;;;11.04;61.26;93681.13;5067235;28;20198;-85
2022/04/07 02:08:36;;;;;;;13.57;7.67;;;;;;;11.04;61.28;93675.91;5024721;28;20348;-85
2022/04/07 02:11:13;;;;;;;10.93;6.53;;;;;;;10.99;59.66;93667.28;5067641;28;20718;-85
2022/04/07 02:13:40;;;;;;;13.33;7.23;;;;;;;10.99;58.94;93673.25;5067147;28;20224;-85
2022/04/07 02:16:08;;;;;;;14.47;7.30;;;;;;;10.92;59.29;93656.28;5069354;28;20208;-88
2022/04/07 02:18:35;;;;;;;11.07;6.63;;;;;;;10.72;58.80;93628.25;5068428;28;20205;-89
2022/04/07 02:21:01;;;;;;;12.57;7.50;;;;;;;10.95;59.65;93656.56;5068557;28;20205;-87
2022/04/07 02:23:30;;;;;;;19.07;8.80;;;;;;;10.95;60.48;93643.59;5069555;28;20224;-90
2022/04/07 02:26:09;;;;;;;31.40;13.33;;;;;;;10.93;61.11;93653.44;5071259;28;20197;-90
2022/04/07 02:28:38;;;;;;;32.60;13.00;;;;;;;10.97;61.21;93648.53;5070538;28;20559;-90
2022/04/07 02:31:05;;;;;;;28.83;12.53;;;;;;;10.98;60.76;93652.69;5071196;28;20194;-91
2022/04/07 02:33:34;;;;;;;28.80;11.00;;;;;;;10.96;61.35;93641.78;5071679;28;20209;-91
2022/04/07 02:36:01;;;;;;;25.80;10.93;;;;;;;10.92;61.42;93640.69;5071754;28;20208;-92
2022/04/07 02:38:27;;;;;;;23.93;10.20;;;;;;;10.83;61.31;93640.31;5071661;28;20213;-91
2022/04/07 02:40:55;;;;;;;18.60;9.80;;;;;;;10.78;61.74;93609.09;5071162;28;20205;-90
2022/04/07 02:43:26;;;;;;;20.90;10.10;;;;;;;10.89;61.22;93618.56;5070479;28;20200;-90
2022/04/07 02:45:55;;;;;;;24.77;10.70;;;;;;;10.66;61.58;93591.03;5068023;28;20194;-86
2022/04/07 02:48:22;;;;;;;17.03;9.10;;;;;;;10.88;61.05;93614.38;5068498;28;20692;-85
2022/04/07 02:50:48;;;;;;;24.30;10.27;;;;;;;10.87;60.85;93610.22;5068603;28;20208;-85
2022/04/07 02:53:15;;;;;;;18.77;9.67;;;;;;;10.85;61.83;93601.13;5067035;28;20205;-85
2022/04/07 02:55:42;;;;;;;17.63;7.97;;;;;;;10.90;61.79;93593.38;5065830;28;20204;-84
2022/04/07 02:58:09;;;;;;;15.10;6.77;;;;;;;10.89;60.30;93581.38;5066050;28;20679;-85
2022/04/07 03:00:36;;;;;;;13.50;6.27;;;;;;;10.90;60.12;93570.75;5065958;28;20263;-86
2022/04/07 03:03:04;;;;;;;11.07;5.87;;;;;;;10.90;59.95;93552.56;5066239;28;20201;-86
2022/04/07 03:05:31;;;;;;;7.27;5.20;;;;;;;10.98;59.26;93566.91;5070081;28;20217;-86
2022/04/07 03:07:58;;;;;;;11.03;5.67;;;;;;;11.07;60.00;93579.22;5068595;28;20901;-86
2022/04/07 03:10:25;;;;;;;11.37;5.20;;;;;;;11.14;60.43;93585.00;5075328;28;20750;-86
2022/04/07 03:12:52;;;;;;;7.13;4.80;;;;;;;11.21;61.26;93566.59;5060824;28;20632;-85
2022/04/07 03:15:19;;;;;;;10.47;5.07;;;;;;;11.34;62.19;93561.75;5062827;28;20252;-86
2022/04/07 03:17:46;;;;;;;6.17;4.43;;;;;;;11.42;60.68;93552.72;5062482;28;20197;-87
2022/04/07 03:20:37;;;;;;;6.87;4.40;;;;;;;11.51;59.25;93545.22;5065545;28;20616;-86
2022/04/07 03:23:04;;;;;;;5.93;4.43;;;;;;;11.56;59.12;93546.03;5066171;28;20186;-85
2022/04/07 03:25:30;;;;;;;9.17;4.20;;;;;;;11.55;57.77;93547.06;5066090;28;20202;-86
2022/04/07 03:27:57;;;;;;;8.23;4.30;;;;;;;11.59;58.48;93542.94;5065973;28;20205;-86
2022/04/07 03:30:24;;;;;;;9.83;4.47;;;;;;;11.62;57.99;93539.84;5065440;28;20232;-85
2022/04/07 03:32:55;;;;;;;7.10;4.50;;;;;;;11.62;57.82;93537.22;5065040;28;20206;-85
2022/04/07 03:35:22;;;;;;;12.93;4.83;;;;;;;11.60;57.12;93535.91;5062826;28;20209;-72
2022/04/07 03:37:50;;;;;;;8.20;4.73;;;;;;;11.58;56.93;93537.97;5060855;28;20193;-72
2022/04/07 03:40:17;;;;;;;9.87;4.33;;;;;;;11.62;56.38;93532.03;5060548;28;20201;-73
2022/04/07 03:42:45;;;;;;;7.73;4.50;;;;;;;11.64;56.65;93523.97;5060260;28;20196;-72
2022/04/07 03:45:12;;;;;;;9.63;4.40;;;;;;;11.63;56.00;93512.00;5061697;28;20201;-72
2022/04/07 03:47:39;;;;;;;10.07;4.63;;;;;;;11.69;56.46;93496.16;5059461;28;20212;-72
2022/04/07 03:50:06;;;;;;;11.53;4.20;;;;;;;11.77;56.15;93487.13;5065389;28;20232;-72
2022/04/07 03:52:33;;;;;;;10.63;4.47;;;;;;;11.79;56.05;93495.44;5066380;28;20225;-73
2022/04/07 03:55:01;;;;;;;7.03;4.60;;;;;;;11.80;56.06;93491.81;5066456;28;20202;-73
2022/04/07 03:57:28;;;;;;;7.27;4.57;;;;;;;11.78;55.71;93492.06;5068276;28;20664;-72
2022/04/07 03:59:55;;;;;;;8.20;4.50;;;;;;;11.60;56.11;93481.28;5070060;28;20197;-72
2022/04/07 04:02:22;;;;;;;14.80;5.00;;;;;;;11.71;56.36;93480.31;5069112;28;20205;-73
2022/04/07 04:04:49;;;;;;;7.73;4.50;;;;;;;11.65;57.24;93473.50;5069879;28;20197;-73
2022/04/07 04:07:16;;;;;;;6.03;4.20;;;;;;;11.62;56.59;93487.78;5070836;28;20577;-72
2022/04/07 04:09:45;;;;;;;10.53;4.80;;;;;;;11.67;56.33;93508.63;5070281;28;20202;-72
2022/04/07 04:12:13;;;;;;;8.23;4.47;;;;;;;11.67;57.04;93511.22;5069763;28;20209;-72
2022/04/07 04:14:40;;;;;;;12.07;4.67;;;;;;;11.72;56.52;93520.91;5069754;28;20233;-72
2022/04/07 04:17:07;;;;;;;6.17;4.73;;;;;;;11.75;56.17;93523.00;5068928;28;20205;-72
2022/04/07 04:19:33;;;;;;;9.03;4.80;;;;;;;11.81;56.79;93522.00;5069828;28;20201;-72
2022/04/07 04:22:01;;;;;;;9.17;5.10;;;;;;;11.74;56.43;93516.25;5068953;28;20296;-72
2022/04/07 04:24:27;;;;;;;7.33;4.80;;;;;;;11.64;56.72;93523.97;5069731;28;20209;-72
2022/04/07 04:26:54;;;;;;;7.20;4.70;;;;;;;11.61;56.69;93516.66;5068929;28;20189;-72
2022/04/07 04:29:22;;;;;;;14.37;5.70;;;;;;;11.69;56.69;93517.00;5059203;28;20236;-71
2022/04/07 04:31:49;;;;;;;9.07;5.13;;;;;;;11.78;55.82;93509.50;5069100;28;20621;-81
2022/04/07 04:34:16;;;;;;;6.63;4.40;;;;;;;11.81;56.04;93514.97;5067630;28;20197;-72
2022/04/07 04:36:43;;;;;;;6.90;4.43;;;;;;;11.83;56.26;93515.50;5069304;28;20209;-72
2022/04/07 04:39:09;;;;;;;9.23;4.87;;;;;;;11.84;55.95;93505.88;5069009;28;20204;-72
2022/04/07 04:41:36;;;;;;;9.20;5.10;;;;;;;11.85;55.99;93499.63;5069147;28;20205;-72
2022/04/07 04:44:03;;;;;;;9.37;5.37;;;;;;;11.90;55.45;93497.84;5068944;28;20193;-72
2022/04/07 04:46:31;;;;;;;12.57;5.07;;;;;;;11.90;56.20;93503.06;5069369;28;20216;-71
2022/04/07 04:48:59;;;;;;;9.43;5.00;;;;;;;11.96;56.10;93498.63;5069560;28;20217;-71
2022/04/07 04:51:25;;;;;;;10.97;5.43;;;;;;;11.95;56.86;93503.06;5069398;28;20703;-72
2022/04/07 04:53:53;;;;;;;7.90;5.20;;;;;;;11.90;57.29;93504.88;5068762;28;20251;-73
2022/04/07 04:56:20;;;;;;;10.13;5.50;;;;;;;11.85;58.75;93505.63;5069136;28;21867;-73
2022/04/07 04:58:47;;;;;;;13.53;5.87;;;;;;;11.94;60.34;93514.53;5066231;28;20197;-72
2022/04/07 05:01:14;;;;;;;14.70;6.07;;;;;;;11.94;60.91;93513.75;5068167;28;20201;-72
2022/04/07 05:03:43;;;;;;;12.57;6.20;;;;;;;12.01;59.16;93516.09;5068520;28;20204;-72
2022/04/07 05:06:09;;;;;;;13.50;7.10;;;;;;;12.00;59.80;93502.31;5067738;28;20255;-73
2022/04/07 05:08:36;;;;;;;12.53;6.80;;;;;;;11.87;61.96;93494.94;5066954;28;20208;-72
2022/04/07 05:11:03;;;;;;;15.83;7.90;;;;;;;11.87;61.87;93492.34;5067951;28;20221;-73
2022/04/07 05:13:30;;;;;;;23.13;8.23;;;;;;;11.90;62.65;93487.44;5067858;28;20251;-73
2022/04/07 05:15:58;;;;;;;13.60;8.27;;;;;;;11.94;62.34;93501.50;5067812;28;20565;-78
2022/04/07 05:18:24;;;;;;;16.37;9.00;;;;;;;11.92;62.03;93510.59;5068329;28;20217;-72
2022/04/07 05:20:52;;;;;;;21.97;9.57;;;;;;;11.91;62.12;93498.63;5067811;28;20204;-72
2022/04/07 05:23:19;;;;;;;23.93;9.57;;;;;;;11.92;63.02;93497.56;5068730;28;20198;-72
2022/04/07 05:25:46;;;;;;;25.63;9.97;;;;;;;11.91;63.50;93504.63;5068280;28;20572;-73
2022/04/07 05:28:13;;;;;;;19.93;9.37;;;;;;;11.82;62.12;93494.94;5068885;28;20204;-73
2022/04/07 05:30:40;;;;;;;26.73;11.50;;;;;;;11.66;63.21;93486.25;5068572;28;20225;-74
2022/04/07 05:33:06;;;;;;;31.23;11.87;;;;;;;11.63;64.22;93489.34;5067809;28;20786;-74
2022/04/07 05:35:33;;;;;;;30.57;12.77;;;;;;;11.56;64.72;93498.41;5068916;28;20204;-73
2022/04/07 05:38:04;;;;;;;28.47;11.77;;;;;;;11.48;65.27;93504.09;5060672;28;20239;-73
2022/04/07 05:40:33;;;;;;;22.53;11.33;;;;;;;11.59;63.74;93501.31;5062955;28;20193;-72
2022/04/07 05:43:01;;;;;;;20.90;10.40;;;;;;;11.67;63.51;93487.81;5057698;28;20208;-73
2022/04/07 05:45:30;;;;;;;22.17;10.33;;;;;;;11.73;63.27;93497.25;5064919;28;20208;-74
2022/04/07 05:47:57;;;;;;;21.27;12.27;;;;;;;11.70;63.28;93486.56;5068592;28;20252;-73
2022/04/07 05:50:24;;;;;;;21.10;12.10;;;;;;;11.73;63.42;93478.25;5068764;28;20224;-73
2022/04/07 05:52:51;;;;;;;29.43;13.03;;;;;;;11.75;63.95;93473.56;5068853;28;20205;-73
2022/04/07 05:55:19;;;;;;;24.47;12.30;;;;;;;11.71;63.82;93465.50;5068029;28;20200;-72
2022/04/07 05:57:46;;;;;;;25.93;12.03;;;;;;;11.77;64.11;93453.28;5068444;28;20283;-73
2022/04/07 06:00:17;;;;;;;32.93;11.80;;;;;;;11.84;64.12;93451.22;5068745;28;20189;-72
2022/04/07 06:02:44;;;;;;;24.70;11.30;;;;;;;11.93;62.24;93449.69;5068751;28;20763;-72
2022/04/07 06:05:16;;;;;;;27.63;10.80;;;;;;;12.09;62.02;93438.25;5068126;28;20190;-72
2022/04/07 06:07:43;;;;;;;17.03;11.00;;;;;;;12.19;61.20;93451.31;5067948;28;20225;-72
2022/04/07 06:10:10;;;;;;;22.33;10.33;;;;;;;12.23;61.30;93444.56;5067806;28;20225;-72
2022/04/07 06:12:42;;;;;;;22.00;10.47;;;;;;;12.28;60.91;93436.75;5067896;28;20209;-73
2022/04/07 06:15:09;;;;;;;21.53;9.80;;;;;;;12.34;59.90;93448.75;5067743;28;20287;-73
2022/04/07 06:17:38;;;;;;;21.87;8.80;;;;;;;12.38;58.85;93443.81;5068130;28;20209;-72
2022/04/07 06:20:07;;;;;;;15.63;7.80;;;;;;;12.38;58.80;93452.41;5067138;28;20190;-73
2022/04/07 06:22:35;;;;;;;19.57;6.63;;;;;;;12.46;55.95;93451.91;5068074;28;20263;-72
2022/04/07 06:25:02;;;;;;;17.33;6.77;;;;;;;12.50;55.77;93446.94;5068110;28;20189;-71
2022/04/07 06:27:34;;;;;;;14.13;6.67;;;;;;;12.55;55.75;93441.75;5067092;28;20686;-73
2022/04/07 06:30:03;;;;;;;14.70;6.67;;;;;;;12.55;55.03;93430.53;5067919;28;20244;-73
2022/04/07 06:32:30;;;;;;;15.40;6.47;;;;;;;12.61;54.67;93430.25;5067392;28;20675;-73
2022/04/07 06:34:56;;;;;;;14.50;6.00;;;;;;;12.71;54.19;93421.66;5067461;28;20193;-74
2022/04/07 06:37:23;;;;;;;11.27;6.07;;;;;;;12.74;53.59;93426.38;5067498;28;20194;-72
2022/04/07 06:39:50;;;;;;;9.37;5.77;;;;;;;12.83;53.33;93422.19;5067075;28;20193;-73
2022/04/07 06:42:17;;;;;;;14.93;5.83;;;;;;;12.86;52.69;93424.28;5068230;28;20204;-74
2022/04/07 06:44:44;;;;;;;12.03;5.53;;;;;;;12.87;52.93;93431.06;5066288;28;20200;-74
2022/04/07 06:47:12;;;;;;;15.33;7.53;;;;;;;12.88;52.45;93427.41;5067168;28;20199;-79
2022/04/07 06:49:40;;;;;;;12.03;6.50;;;;;;;12.95;52.05;93425.31;5068535;28;20225;-83
2022/04/07 06:52:07;;;;;;;14.07;5.83;;;;;;;13.00;51.21;93418.28;5061527;28;20683;-79
2022/04/07 06:54:35;;;;;;;14.73;6.60;;;;;;;13.04;52.30;93419.28;5061282;28;20202;-78
2022/04/07 06:57:02;;;;;;;9.77;6.10;;;;;;;13.15;53.66;93421.94;5066752;28;20205;-79
2022/04/07 06:59:29;;;;;;;16.10;6.30;;;;;;;13.03;52.25;93432.59;5068144;28;20292;-78
2022/04/07 07:01:59;;;;;;;20.20;6.87;;;;;;;13.08;51.95;93433.41;5068676;28;20255;-78
2022/04/07 07:04:32;;;;;;;15.60;6.73;;;;;;;12.78;52.12;93372.69;5067095;28;20236;-77
2022/04/07 07:07:01;;;;;;;11.03;6.53;;;;;;;13.19;54.02;93409.94;5059751;28;20220;-78
2022/04/07 07:09:32;;;;;;;12.80;7.23;;;;;;;13.23;53.41;93414.34;5065308;28;20225;-79
2022/04/07 07:12:01;;;;;;;9.20;7.07;;;;;;;13.13;53.40;93374.47;5067958;28;20201;-77
2022/04/07 07:14:28;;;;;;;15.93;7.10;;;;;;;13.53;51.69;93429.16;5065670;28;20704;-79
2022/04/07 07:17:11;;;;;;;15.93;7.97;;;;;;;13.44;51.39;93415.88;5069226;28;20293;-83
2022/04/07 07:19:44;;;;;;;16.30;6.90;;;;;;;13.16;50.76;93369.47;5069552;28;20646;-81
2022/04/07 07:22:11;;;;;;;17.70;6.77;;;;;;;13.63;51.62;93416.84;5069831;28;20197;-82
2022/04/07 07:24:37;;;;;;;18.70;7.63;;;;;;;13.61;51.71;93424.16;5069228;28;20224;-81
2022/04/07 07:27:05;;;;;;;16.30;7.50;;;;;;;13.58;51.16;93414.25;5070068;28;20630;-81
2022/04/07 07:29:32;;;;;;;14.63;7.17;;;;;;;13.67;50.50;93418.91;5071637;28;20190;-83
2022/04/07 07:31:59;;;;;;;18.90;7.80;;;;;;;13.75;51.00;93419.16;5073464;28;20275;-80
2022/04/07 07:34:26;;;;;;;12.70;7.50;;;;;;;13.78;50.69;93410.00;5073514;28;20284;-81
2022/04/07 07:36:54;;;;;;;37.17;7.87;;;;;;;13.80;50.56;93402.66;5073070;28;20197;-81
2022/04/07 07:39:21;;;;;;;13.73;6.77;;;;;;;13.82;50.14;93388.31;5072829;28;20312;-81
2022/04/07 07:41:48;;;;;;;14.47;6.23;;;;;;;13.76;49.94;93380.78;5073543;28;20208;-81
2022/04/07 07:44:15;;;;;;;11.10;6.17;;;;;;;13.80;50.05;93387.00;5074525;28;20280;-82
2022/04/07 07:46:42;;;;;;;12.47;6.53;;;;;;;13.81;50.01;93371.06;5074078;28;20249;-82
2022/04/07 07:49:10;;;;;;;12.73;6.53;;;;;;;14.03;49.94;93374.09;5073784;28;20288;-84
2022/04/07 07:51:37;;;;;;;15.27;6.37;;;;;;;14.10;50.61;93371.97;5073524;28;20221;-83
2022/04/07 07:54:06;;;;;;;15.37;6.90;;;;;;;14.13;50.71;93378.47;5072517;28;20201;-84
2022/04/07 07:56:33;;;;;;;11.57;6.80;;;;;;;14.20;51.27;93384.16;5075137;28;20201;-82
2022/04/07 07:59:20;;;;;;;11.37;6.67;;;;;;;14.13;52.51;93374.03;5074883;28;20646;-81
2022/04/07 08:01:48;;;;;;;14.97;6.40;;;;;;;14.13;52.01;93365.41;5077262;28;20208;-82
2022/04/07 08:04:15;;;;;;;12.53;7.00;;;;;;;14.13;53.41;93350.53;5077068;28;20201;-83
2022/04/07 08:07:02;;;;;;;13.07;6.50;;;;;;;14.25;53.15;93352.78;5073512;28;20205;-83
2022/04/07 08:09:33;;;;;;;13.57;6.30;;;;;;;14.26;51.78;93346.50;5075339;28;20201;-81
2022/04/07 08:12:00;;;;;;;18.20;7.07;;;;;;;14.32;52.02;93348.06;5074234;28;20707;-82
2022/04/07 08:14:26;;;;;;;16.97;7.40;;;;;;;14.37;52.32;93340.16;5070995;28;20315;-83
2022/04/07 08:16:53;;;;;;;16.27;7.30;;;;;;;14.45;52.09;93337.00;5073291;28;20201;-85
2022/04/07 08:19:21;;;;;;;15.67;7.33;;;;;;;14.48;51.33;93348.72;5073478;28;20587;-83
2022/04/07 08:21:48;;;;;;;15.77;7.00;;;;;;;14.37;50.39;93345.41;5073079;28;20247;-83
2022/04/07 08:24:16;;;;;;;14.33;7.10;;;;;;;14.23;49.85;93325.38;5073575;28;20652;-83
2022/04/07 08:26:44;;;;;;;14.97;8.07;;;;;;;14.00;50.44;93311.94;5073655;28;20212;-83
2022/04/07 08:29:20;;;;;;;13.40;6.97;;;;;;;13.95;49.88;93298.13;5073318;28;20220;-83
2022/04/07 08:32:07;;;;;;;12.47;6.50;;;;;;;13.93;50.41;93268.91;5070099;28;20233;-82
2022/04/07 08:34:35;;;;;;;14.10;6.23;;;;;;;13.90;49.36;93270.22;5071665;28;20637;-82
2022/04/07 08:37:04;;;;;;;11.33;6.87;;;;;;;14.30;49.29;93320.59;5072610;28;20282;-82
2022/04/07 08:39:31;;;;;;;18.03;6.40;;;;;;;14.29;48.86;93292.91;5072500;28;20198;-82
2022/04/07 08:42:07;;;;;;;15.27;6.57;;;;;;;14.41;48.34;93322.91;5070869;28;20193;-83
2022/04/07 08:44:38;;;;;;;11.20;6.73;;;;;;;14.38;48.02;93325.28;5071288;28;20232;-82
2022/04/07 08:47:18;;;;;;;13.47;6.23;;;;;;;14.39;47.32;93326.84;5072964;28;20193;-82
2022/04/07 08:49:49;;;;;;;17.57;6.63;;;;;;;14.50;47.39;93304.78;5070646;28;20209;-82
2022/04/07 08:52:17;;;;;;;14.63;5.40;;;;;;;14.52;47.34;93316.53;5072491;28;20213;-81
2022/04/07 08:54:54;;;;;;;15.43;5.70;;;;;;;14.61;46.52;93307.03;5070985;28;20201;-82
2022/04/07 08:57:24;;;;;;;9.80;5.20;;;;;;;14.66;46.03;93303.63;5071520;28;20692;-83
2022/04/07 08:59:51;;;;;;;13.40;5.57;;;;;;;14.72;46.79;93299.88;5072009;28;20196;-86
2022/04/07 09:02:18;;;;;;;10.30;5.47;;;;;;;14.98;45.83;93314.25;5072321;28;20597;-81
2022/04/07 09:04:47;;;;;;;13.83;5.70;;;;;;;15.01;45.69;93308.47;5073076;28;20197;-83
2022/04/07 09:07:15;;;;;;;6.40;5.30;;;;;;;14.86;45.41;93294.78;5072117;28;20193;-86
2022/04/07 09:10:18;;;;;;;12.60;5.93;;;;;;;14.92;45.37;93312.75;5072012;28;20201;-87
2022/04/07 09:13:03;;;;;;;16.13;5.80;;;;;;;14.86;45.97;93307.88;5069288;28;20201;-88
2022/04/07 09:15:31;;;;;;;7.57;5.50;;;;;;;14.58;46.24;93315.44;5070422;28;20720;-87
2022/04/07 09:18:00;;;;;;;10.03;5.70;;;;;;;14.29;48.11;93329.50;5070276;28;20198;-87
2022/04/07 09:20:47;;;;;;;12.40;5.80;;;;;;;13.96;48.82;93341.50;5069905;28;20197;-86
2022/04/07 09:23:15;;;;;;;14.00;6.07;;;;;;;13.77;48.27;93327.47;5072662;28;20189;-85
2022/04/07 09:25:52;;;;;;;11.83;6.70;;;;;;;13.72;49.84;93335.34;5072959;28;20243;-84
2022/04/07 09:28:31;;;;;;;17.07;6.73;;;;;;;13.61;51.08;93311.91;5069764;28;20189;-84
2022/04/07 09:30:59;;;;;;;13.53;6.53;;;;;;;13.59;53.32;93314.00;5072551;28;20221;-85
2022/04/07 09:33:27;;;;;;;13.93;5.83;;;;;;;13.52;56.16;93320.56;5071957;28;20197;-89
2022/04/07 09:36:10;;;;;;;12.30;5.93;;;;;;;13.45;55.64;93312.25;5070839;28;20239;-84
2022/04/07 09:38:40;;;;;;;10.87;6.07;;;;;;;13.66;56.92;93331.97;5070704;28;20236;-82
2022/04/07 09:41:09;;;;;;;12.53;6.73;;;;;;;13.47;54.22;93326.59;5071971;28;20978;-84
2022/04/07 09:43:45;;;;;;;11.03;6.30;;;;;;;13.32;54.78;93328.47;5070347;28;20743;-83
2022/04/07 09:46:12;;;;;;;12.37;5.83;;;;;;;13.29;55.00;93331.63;5070734;28;20205;-83
2022/04/07 09:48:40;;;;;;;13.70;6.30;;;;;;;13.26;55.27;93337.38;5070253;28;20205;-82
2022/04/07 09:51:08;;;;;;;13.27;6.13;;;;;;;13.29;54.84;93349.88;5069758;28;20330;-82
2022/04/07 09:53:38;;;;;;;16.17;7.10;;;;;;;13.19;53.22;93374.16;5069776;28;20220;-83
2022/04/07 09:56:06;;;;;;;19.40;5.80;;;;;;;13.04;55.25;93366.38;5069803;28;20205;-83
2022/04/07 09:58:33;;;;;;;25.17;7.87;;;;;;;12.75;58.75;93357.56;5070349;28;20292;-83
2022/04/07 10:01:03;;;;;;;21.63;8.70;;;;;;;12.55;62.67;93362.78;5069107;28;20672;-82
2022/04/07 10:03:31;;;;;;;21.60;6.83;;;;;;;12.31;66.33;93358.09;5066909;28;20244;-83
2022/04/07 10:05:58;;;;;;;23.47;8.10;;;;;;;12.07;70.26;93358.84;5068417;28;20239;-81
2022/04/07 10:08:26;;;;;;;30.03;11.67;;;;;;;11.64;78.84;93365.22;5069479;28;20618;-81
2022/04/07 10:10:53;;;;;;;31.47;11.87;;;;;;;11.43;85.40;93376.63;5069221;28;20226;-81
2022/04/07 10:13:21;;;;;;;34.00;13.13;;;;;;;11.32;88.25;93376.56;5069056;28;20713;-82
2022/04/07 10:15:48;;;;;;;31.83;14.83;;;;;;;11.38;88.42;93375.56;5066362;28;20197;-81
2022/04/07 10:18:24;;;;;;;30.67;15.13;;;;;;;11.33;91.53;93379.94;5069870;28;20674;-82
2022/04/07 10:20:57;;;;;;;27.87;15.10;;;;;;;11.33;93.75;93370.34;5064149;28;20221;-81
2022/04/07 10:23:41;;;;;;;25.43;14.67;;;;;;;11.20;94.03;93349.97;5068006;28;20190;-82
2022/04/07 10:26:10;;;;;;;29.67;15.67;;;;;;;11.38;98.08;93364.34;5072286;28;20197;-82
2022/04/07 10:28:37;;;;;;;32.47;17.80;;;;;;;11.27;100.00;93362.75;5070293;28;20887;-83
2022/04/07 10:31:14;;;;;;;30.27;16.97;;;;;;;11.13;100.00;93361.66;5069098;28;20221;-82
2022/04/07 10:33:44;;;;;;;27.47;16.87;;;;;;;10.89;100.00;93361.25;5071569;28;20274;-82
2022/04/07 10:36:16;;;;;;;24.93;14.40;;;;;;;10.70;100.00;93360.13;5069710;28;20204;-82
2022/04/07 10:38:46;;;;;;;24.27;13.83;;;;;;;10.57;100.00;93353.53;5070114;28;20221;-81
2022/04/07 10:41:33;;;;;;;30.10;19.63;;;;;;;10.60;100.00;93352.22;5069368;28;20189;-81
2022/04/07 10:44:09;;;;;;;29.57;15.83;;;;;;;10.54;100.00;93345.44;5069108;28;20189;-81
2022/04/07 10:46:36;;;;;;;28.73;17.33;;;;;;;10.35;100.00;93331.28;5068411;28;20908;-81
2022/04/07 10:49:07;;;;;;;32.10;15.33;;;;;;;10.35;100.00;93336.47;5068909;28;20190;-82
2022/04/07 10:51:45;;;;;;;26.87;14.00;;;;;;;10.41;100.00;93332.91;5067895;28;20224;-82
2022/04/07 10:54:14;;;;;;;25.63;14.67;;;;;;;10.58;100.00;93334.31;5068739;28;20201;-81
2022/04/07 10:56:48;;;;;;;29.00;17.63;;;;;;;10.68;100.00;93330.97;5067610;28;20668;-82
2022/04/07 10:59:22;;;;;;;23.80;13.97;;;;;;;10.80;100.00;93321.19;5068906;28;20268;-81
2022/04/07 11:01:56;;;;;;;24.00;10.80;;;;;;;10.95;100.00;93317.88;5065884;28;20196;-81
2022/04/07 11:04:42;;;;;;;23.57;12.17;;;;;;;11.08;100.00;93313.00;5068612;28;20687;-82
2022/04/07 11:07:22;;;;;;;22.63;14.10;;;;;;;11.39;100.00;93314.69;5065318;28;20209;-80
2022/04/07 11:10:04;;;;;;;23.40;13.37;;;;;;;11.62;100.00;93315.28;5068080;28;20220;-82
2022/04/07 11:12:32;;;;;;;17.13;10.47;;;;;;;11.74;100.00;93308.03;5069225;28;20321;-82
2022/04/07 11:15:30;;;;;;;14.70;8.87;;;;;;;11.93;100.00;93299.47;5068305;28;20797;-82
2022/04/07 11:18:03;;;;;;;19.70;9.60;;;;;;;12.12;99.20;93310.16;5040276;28;20688;-81
2022/04/07 11:20:32;;;;;;;12.53;7.43;;;;;;;12.17;94.30;93314.59;5068875;28;20675;-82
2022/04/07 11:23:01;;;;;;;15.50;7.17;;;;;;;11.99;93.78;93305.47;5068490;28;20197;-82
2022/04/07 11:25:31;;;;;;;17.23;7.73;;;;;;;12.15;92.82;93301.06;5068513;28;20667;-80
2022/04/07 11:28:07;;;;;;;19.47;7.57;;;;;;;12.22;92.00;93304.16;5067956;28;20209;-81
2022/04/07 11:30:49;;;;;;;13.53;7.60;;;;;;;12.21;92.35;93294.78;5067624;28;20204;-82
2022/04/07 11:33:38;;;;;;;11.37;7.80;;;;;;;12.35;92.01;93312.22;5068123;28;20193;-82
2022/04/07 11:36:42;;;;;;;19.83;8.60;;;;;;;12.39;93.37;93305.47;5066103;28;20683;-82